createdAt,value
2023-04-09T00:00:23.904Z,5.10
2023-04-09T00:01:23.890Z,5.70
2023-04-09T00:02:23.956Z,5.30
2023-04-09T00:03:23.928Z,5.50
2023-04-09T00:04:23.924Z,5.70
2023-04-09T00:05:23.923Z,5.40
2023-04-09T00:06:23.888Z,5.50
2023-04-09T00:07:23.846Z,5.40
2023-04-09T00:08:23.842Z,5.50
2023-04-09T00:09:23.812Z,5.70
2023-04-09T00:10:23.818Z,5.70
2023-04-09T00:11:23.792Z,5.80
2023-04-09T00:12:23.859Z,5.90
2023-04-09T00:13:31.966Z,5.50
2023-04-09T00:14:23.756Z,5.90
2023-04-09T00:15:30.609Z,5.30
2023-04-09T00:16:23.800Z,5.70
2023-04-09T00:17:23.705Z,5.60
2023-04-09T00:18:23.710Z,5.50
2023-04-09T00:19:23.721Z,5.30
2023-04-09T00:20:23.709Z,5.50
2023-04-09T00:21:23.670Z,5.40
2023-04-09T00:22:23.682Z,5.00
2023-04-09T00:23:23.695Z,5.20
2023-04-09T00:24:23.726Z,5.70
2023-04-09T00:25:23.738Z,5.70
2023-04-09T00:26:23.647Z,5.50
2023-04-09T00:27:23.627Z,6.00
2023-04-09T00:28:23.617Z,5.90
2023-04-09T00:29:23.653Z,5.70
2023-04-09T00:30:23.580Z,5.50
2023-04-09T00:31:23.611Z,5.40
2023-04-09T00:32:23.563Z,5.10
2023-04-09T00:33:23.589Z,6.20
2023-04-09T00:34:23.537Z,5.60
2023-04-09T00:35:23.588Z,5.90
2023-04-09T00:36:25.260Z,5.40
2023-04-09T00:37:23.536Z,5.70
2023-04-09T00:38:23.524Z,5.70
2023-04-09T00:39:23.542Z,5.80
2023-04-09T00:40:23.521Z,5.60
2023-04-09T00:41:23.461Z,5.70
2023-04-09T00:42:23.459Z,5.10
2023-04-09T00:43:23.490Z,5.80
2023-04-09T00:44:23.441Z,5.30
2023-04-09T00:45:23.409Z,5.60
2023-04-09T00:46:23.481Z,5.10
2023-04-09T00:47:23.477Z,5.60
2023-04-09T00:48:23.392Z,5.60
2023-04-09T00:49:23.411Z,5.40
2023-04-09T00:50:23.405Z,5.40
2023-04-09T00:51:23.357Z,5.50
2023-04-09T00:52:23.347Z,5.60
2023-04-09T00:53:23.362Z,5.20
2023-04-09T00:54:23.375Z,5.50
2023-04-09T00:55:23.352Z,5.90
2023-04-09T00:56:23.422Z,5.80
2023-04-09T00:57:23.295Z,5.90
2023-04-09T00:58:23.300Z,5.20
2023-04-09T00:59:23.283Z,5.80
2023-04-09T01:00:23.286Z,5.90
2023-04-09T01:01:23.338Z,5.50
2023-04-09T01:02:23.365Z,5.90
2023-04-09T01:03:23.386Z,5.90
2023-04-09T01:04:23.363Z,6.10
2023-04-09T01:05:23.202Z,6.10
2023-04-09T01:06:23.201Z,6.10
2023-04-09T01:07:23.194Z,6.10
2023-04-09T01:08:23.188Z,6.30
2023-04-09T01:09:23.185Z,5.60
2023-04-09T01:10:23.178Z,5.40
2023-04-09T01:11:23.168Z,5.60
2023-04-09T01:12:23.143Z,5.90
2023-04-09T01:13:23.157Z,6.40
2023-04-09T01:14:23.136Z,5.80
2023-04-09T01:15:23.127Z,6.80
2023-04-09T01:16:23.138Z,6.20
2023-04-09T01:17:23.136Z,5.90
2023-04-09T01:18:23.093Z,6.60
2023-04-09T01:19:23.049Z,6.30
2023-04-09T01:20:23.081Z,6.30
2023-04-09T01:21:23.043Z,5.60
2023-04-09T01:22:23.022Z,6.00
2023-04-09T01:23:23.085Z,5.80
2023-04-09T01:24:23.017Z,6.20
2023-04-09T01:25:22.984Z,5.70
2023-04-09T01:26:23.017Z,6.10
2023-04-09T01:27:22.969Z,6.40
2023-04-09T01:28:22.944Z,5.60
2023-04-09T01:29:22.991Z,5.70
2023-04-09T01:30:23.024Z,5.90
2023-04-09T01:31:22.979Z,6.40
2023-04-09T01:32:22.960Z,6.30
2023-04-09T01:33:22.956Z,6.10
2023-04-09T01:34:22.946Z,5.80
2023-04-09T01:35:22.888Z,6.40
2023-04-09T01:36:22.979Z,5.80
2023-04-09T01:37:22.876Z,5.80
2023-04-09T01:38:22.863Z,6.50
2023-04-09T01:39:22.855Z,6.00
2023-04-09T01:40:22.832Z,6.00
2023-04-09T01:41:22.832Z,5.90
2023-04-09T01:42:22.837Z,5.70
2023-04-09T01:43:22.853Z,5.80
2023-04-09T01:44:22.802Z,6.30
2023-04-09T01:45:22.785Z,5.80
2023-04-09T01:46:22.883Z,6.40
2023-04-09T01:47:22.826Z,5.90
2023-04-09T01:48:22.817Z,5.90
2023-04-09T01:49:22.791Z,6.00
2023-04-09T01:50:22.792Z,6.30
2023-04-09T01:51:22.772Z,6.40
2023-04-09T01:52:22.753Z,5.70
2023-04-09T01:53:22.709Z,6.20
2023-04-09T01:54:22.712Z,6.20
2023-04-09T01:55:23.357Z,6.80
2023-04-09T01:56:22.650Z,6.30
2023-04-09T01:57:22.647Z,6.80
2023-04-09T01:58:22.672Z,6.30
2023-04-09T01:59:22.622Z,6.00
2023-04-09T02:00:22.616Z,6.50
2023-04-09T02:01:22.636Z,5.90
2023-04-09T02:02:22.770Z,5.80
2023-04-09T02:03:22.761Z,5.90
2023-04-09T02:04:22.641Z,6.60
2023-04-09T02:05:22.601Z,7.30
2023-04-09T02:06:22.578Z,6.20
2023-04-09T02:07:22.590Z,6.60
2023-04-09T02:08:22.527Z,5.80
2023-04-09T02:09:22.518Z,6.60
2023-04-09T02:10:22.503Z,6.30
2023-04-09T02:11:22.563Z,6.80
2023-04-09T02:12:22.516Z,7.00
2023-04-09T02:13:22.491Z,6.90
2023-04-09T02:14:22.454Z,6.50
2023-04-09T02:15:22.517Z,6.80
2023-04-09T02:16:22.539Z,6.40
2023-04-09T02:17:22.478Z,6.40
2023-04-09T02:18:22.486Z,6.10
2023-04-09T02:19:22.419Z,6.60
2023-04-09T02:20:22.395Z,6.60
2023-04-09T02:21:22.425Z,6.60
2023-04-09T02:22:22.411Z,6.50
2023-04-09T02:23:22.418Z,6.50
2023-04-09T02:24:22.459Z,6.60
2023-04-09T02:25:22.430Z,7.00
2023-04-09T02:26:22.412Z,6.70
2023-04-09T02:27:22.444Z,6.60
2023-04-09T02:28:22.400Z,7.30
2023-04-09T02:29:22.349Z,6.40
2023-04-09T02:30:22.429Z,7.00
2023-04-09T02:31:22.464Z,7.00
2023-04-09T02:32:22.489Z,7.30
2023-04-09T02:33:22.467Z,6.60
2023-04-09T02:34:22.361Z,7.00
2023-04-09T02:35:22.450Z,6.30
2023-04-09T02:36:22.383Z,6.00
2023-04-09T02:37:22.363Z,6.50
2023-04-09T02:38:22.608Z,6.00
2023-04-09T02:39:22.380Z,7.30
2023-04-09T02:40:22.244Z,6.10
2023-04-09T02:41:22.395Z,6.80
2023-04-09T02:42:22.562Z,6.30
2023-04-09T02:43:22.188Z,6.00
2023-04-09T02:44:22.446Z,6.80
2023-04-09T02:45:22.326Z,6.60
2023-04-09T02:46:22.342Z,6.50
2023-04-09T02:47:22.333Z,6.60
2023-04-09T02:48:22.160Z,6.40
2023-04-09T02:49:22.206Z,6.70
2023-04-09T02:50:22.176Z,7.00
2023-04-09T02:51:22.228Z,7.20
2023-04-09T02:52:22.061Z,6.40
2023-04-09T02:53:22.086Z,6.90
2023-04-09T02:54:22.062Z,6.50
2023-04-09T02:55:22.015Z,6.80
2023-04-09T02:56:22.010Z,7.70
2023-04-09T02:57:22.022Z,7.60
2023-04-09T02:58:21.988Z,7.40
2023-04-09T02:59:22.029Z,7.40
2023-04-09T03:00:21.984Z,7.30
2023-04-09T03:01:21.983Z,6.70
2023-04-09T03:02:22.201Z,7.40
2023-04-09T03:03:22.165Z,6.80
2023-04-09T03:04:22.267Z,6.80
2023-04-09T03:05:21.970Z,6.80
2023-04-09T03:06:21.929Z,7.40
2023-04-09T03:07:21.926Z,7.00
2023-04-09T03:08:21.876Z,7.40
2023-04-09T03:09:21.932Z,6.90
2023-04-09T03:10:21.948Z,6.90
2023-04-09T03:11:21.850Z,6.80
2023-04-09T03:12:21.874Z,6.70
2023-04-09T03:13:21.835Z,7.20
2023-04-09T03:14:21.844Z,6.50
2023-04-09T03:15:21.950Z,7.40
2023-04-09T03:16:21.854Z,6.90
2023-04-09T03:17:21.806Z,7.10
2023-04-09T03:18:21.793Z,6.70
2023-04-09T03:19:21.754Z,6.80
2023-04-09T03:20:21.791Z,6.90
2023-04-09T03:21:21.746Z,7.40
2023-04-09T03:22:21.804Z,7.20
2023-04-09T03:23:21.758Z,7.50
2023-04-09T03:24:21.721Z,7.10
2023-04-09T03:25:21.755Z,6.80
2023-04-09T03:26:21.724Z,7.10
2023-04-09T03:27:21.692Z,7.50
2023-04-09T03:28:21.674Z,6.40
2023-04-09T03:29:21.767Z,6.70
2023-04-09T03:30:21.708Z,7.20
2023-04-09T03:31:21.735Z,7.40
2023-04-09T03:32:21.638Z,7.20
2023-04-09T03:33:21.776Z,7.50
2023-04-09T03:34:21.626Z,7.10
2023-04-09T03:35:21.621Z,7.70
2023-04-09T03:36:21.610Z,6.80
2023-04-09T03:37:21.627Z,6.80
2023-04-09T03:38:21.645Z,7.00
2023-04-09T03:39:21.564Z,7.90
2023-04-09T03:40:21.649Z,7.00
2023-04-09T03:41:21.560Z,7.30
2023-04-09T03:42:21.567Z,7.10
2023-04-09T03:43:21.539Z,7.20
2023-04-09T03:44:21.537Z,7.70
2023-04-09T03:45:21.486Z,7.30
2023-04-09T03:46:21.509Z,7.70
2023-04-09T03:47:21.526Z,6.50
2023-04-09T03:48:21.472Z,7.40
2023-04-09T03:49:21.441Z,7.10
2023-04-09T03:50:21.420Z,7.20
2023-04-09T03:51:21.427Z,7.50
2023-04-09T03:52:21.395Z,7.30
2023-04-09T03:53:21.402Z,7.50
2023-04-09T03:54:21.411Z,6.70
2023-04-09T03:55:21.364Z,7.40
2023-04-09T03:56:21.345Z,7.50
2023-04-09T03:57:21.353Z,7.50
2023-04-09T03:58:21.347Z,7.50
2023-04-09T03:59:21.351Z,7.50
2023-04-09T04:00:21.343Z,7.00
2023-04-09T04:01:21.335Z,7.50
2023-04-09T04:02:21.377Z,7.90
2023-04-09T04:03:21.419Z,7.70
2023-04-09T04:04:23.537Z,7.60
2023-04-09T04:05:21.281Z,7.50
2023-04-09T04:06:21.237Z,7.70
2023-04-09T04:07:21.261Z,7.70
2023-04-09T04:08:21.220Z,7.70
2023-04-09T04:09:21.280Z,7.30
2023-04-09T04:10:21.241Z,8.00
2023-04-09T04:11:21.145Z,7.70
2023-04-09T04:12:21.201Z,7.80
2023-04-09T04:13:21.215Z,8.20
2023-04-09T04:14:21.124Z,7.90
2023-04-09T04:15:21.111Z,7.70
2023-04-09T04:16:21.100Z,7.50
2023-04-09T04:17:21.117Z,7.80
2023-04-09T04:18:21.064Z,8.50
2023-04-09T04:19:21.075Z,7.90
2023-04-09T04:20:21.095Z,7.70
2023-04-09T04:21:21.064Z,8.00
2023-04-09T04:22:21.016Z,8.40
2023-04-09T04:23:21.013Z,7.50
2023-04-09T04:24:21.019Z,7.50
2023-04-09T04:25:20.993Z,7.80
2023-04-09T04:26:21.005Z,7.40
2023-04-09T04:27:20.996Z,8.20
2023-04-09T04:28:20.967Z,7.70
2023-04-09T04:29:20.943Z,8.30
2023-04-09T04:30:20.975Z,8.20
2023-04-09T04:31:20.950Z,7.70
2023-04-09T04:32:20.918Z,8.10
2023-04-09T04:33:20.937Z,7.90
2023-04-09T04:34:20.901Z,7.90
2023-04-09T04:35:20.954Z,7.90
2023-04-09T04:36:20.880Z,7.60
2023-04-09T04:37:20.899Z,7.90
2023-04-09T04:38:20.865Z,7.80
2023-04-09T04:39:20.855Z,8.40
2023-04-09T04:40:20.821Z,8.10
2023-04-09T04:41:20.851Z,8.30
2023-04-09T04:42:20.836Z,8.30
2023-04-09T04:43:20.861Z,7.30
2023-04-09T04:44:20.783Z,8.20
2023-04-09T04:45:20.819Z,8.40
2023-04-09T04:46:21.010Z,8.20
2023-04-09T04:47:20.816Z,8.80
2023-04-09T04:48:20.780Z,8.00
2023-04-09T04:49:20.763Z,8.50
2023-04-09T04:50:20.739Z,8.70
2023-04-09T04:51:20.735Z,7.80
2023-04-09T04:52:20.704Z,7.60
2023-04-09T04:53:20.684Z,8.70
2023-04-09T04:54:20.707Z,8.00
2023-04-09T04:55:20.698Z,7.80
2023-04-09T04:56:20.714Z,8.00
2023-04-09T04:57:20.661Z,8.20
2023-04-09T04:58:20.671Z,8.00
2023-04-09T04:59:20.645Z,7.60
2023-04-09T05:00:20.631Z,7.40
2023-04-09T05:01:20.639Z,8.20
2023-04-09T05:02:20.754Z,8.10
2023-04-09T05:03:20.621Z,8.00
2023-04-09T05:04:20.579Z,7.80
2023-04-09T05:05:20.604Z,7.30
2023-04-09T05:06:20.595Z,7.50
2023-04-09T05:07:20.559Z,7.90
2023-04-09T05:08:20.648Z,8.30
2023-04-09T05:09:22.351Z,8.30
2023-04-09T05:10:20.520Z,8.20
2023-04-09T05:11:20.498Z,7.50
2023-04-09T05:12:20.529Z,8.40
2023-04-09T05:13:20.479Z,7.90
2023-04-09T05:14:20.484Z,8.10
2023-04-09T05:15:20.449Z,8.10
2023-04-09T05:16:20.490Z,7.90
2023-04-09T05:17:20.485Z,8.30
2023-04-09T05:18:20.429Z,7.60
2023-04-09T05:19:20.423Z,8.90
2023-04-09T05:20:20.428Z,8.70
2023-04-09T05:21:20.382Z,8.10
2023-04-09T05:22:20.413Z,8.00
2023-04-09T05:23:20.399Z,8.10
2023-04-09T05:24:20.368Z,7.60
2023-04-09T05:25:20.373Z,8.10
2023-04-09T05:26:20.357Z,7.50
2023-04-09T05:27:20.349Z,8.50
2023-04-09T05:28:20.324Z,8.50
2023-04-09T05:29:20.299Z,8.40
2023-04-09T05:30:20.309Z,8.10
2023-04-09T05:31:20.305Z,7.70
2023-04-09T05:32:20.348Z,7.90
2023-04-09T05:33:20.281Z,8.20
2023-04-09T05:34:20.246Z,8.20
2023-04-09T05:35:20.242Z,7.30
2023-04-09T05:36:20.250Z,8.00
2023-04-09T05:37:20.227Z,7.70
2023-04-09T05:38:20.236Z,7.50
2023-04-09T05:39:20.186Z,7.90
2023-04-09T05:40:20.186Z,7.90
2023-04-09T05:41:20.170Z,8.00
2023-04-09T05:42:20.190Z,7.50
2023-04-09T05:43:20.171Z,7.40
2023-04-09T05:44:20.153Z,8.40
2023-04-09T05:45:20.132Z,7.80
2023-04-09T05:46:20.138Z,8.10
2023-04-09T05:47:20.309Z,8.00
2023-04-09T05:48:20.159Z,7.80
2023-04-09T05:49:20.117Z,7.60
2023-04-09T05:50:20.107Z,7.90
2023-04-09T05:51:20.087Z,7.70
2023-04-09T05:52:20.072Z,7.90
2023-04-09T05:53:20.055Z,7.90
2023-04-09T05:54:20.057Z,7.70
2023-04-09T05:55:20.050Z,7.20
2023-04-09T05:56:20.018Z,8.40
2023-04-09T05:57:20.044Z,7.70
2023-04-09T05:58:20.016Z,7.50
2023-04-09T05:59:19.987Z,7.80
2023-04-09T06:00:19.996Z,7.20
2023-04-09T06:01:19.985Z,7.70
2023-04-09T06:02:20.095Z,7.50
2023-04-09T06:03:20.047Z,7.30
2023-04-09T06:04:20.120Z,7.10
2023-04-09T06:05:19.933Z,7.90
2023-04-09T06:06:20.878Z,7.70
2023-04-09T06:07:19.916Z,7.80
2023-04-09T06:08:19.903Z,6.90
2023-04-09T06:09:19.867Z,7.60
2023-04-09T06:10:19.877Z,7.80
2023-04-09T06:11:19.879Z,8.20
2023-04-09T06:12:19.844Z,7.40
2023-04-09T06:13:19.844Z,8.20
2023-04-09T06:14:19.825Z,7.80
2023-04-09T06:15:19.852Z,7.70
2023-04-09T06:16:19.828Z,8.30
2023-04-09T06:17:19.817Z,7.60
2023-04-09T06:18:19.824Z,7.60
2023-04-09T06:19:19.800Z,7.90
2023-04-09T06:20:19.795Z,7.40
2023-04-09T06:21:19.733Z,7.40
2023-04-09T06:22:19.745Z,7.10
2023-04-09T06:23:20.372Z,7.40
2023-04-09T06:24:19.717Z,6.80
2023-04-09T06:25:19.719Z,7.40
2023-04-09T06:26:19.722Z,7.70
2023-04-09T06:27:19.675Z,7.60
2023-04-09T06:28:19.696Z,7.40
2023-04-09T06:29:19.674Z,7.60
2023-04-09T06:30:19.653Z,8.20
2023-04-09T06:31:19.673Z,7.60
2023-04-09T06:32:19.672Z,7.10
2023-04-09T06:33:19.640Z,7.10
2023-04-09T06:34:19.609Z,7.30
2023-04-09T06:35:19.608Z,7.80
2023-04-09T06:36:19.603Z,7.80
2023-04-09T06:37:19.610Z,7.70
2023-04-09T06:38:19.613Z,7.60
2023-04-09T06:39:19.552Z,7.30
2023-04-09T06:40:22.157Z,7.30
2023-04-09T06:41:19.527Z,6.90
2023-04-09T06:42:19.560Z,7.40
2023-04-09T06:43:19.524Z,7.20
2023-04-09T06:44:19.536Z,7.30
2023-04-09T06:45:19.482Z,7.40
2023-04-09T06:46:19.521Z,7.20
2023-04-09T06:47:19.470Z,7.50
2023-04-09T06:48:19.475Z,8.00
2023-04-09T06:49:19.478Z,7.20
2023-04-09T06:50:19.446Z,7.70
2023-04-09T06:51:19.421Z,7.70
2023-04-09T06:52:19.431Z,7.80
2023-04-09T06:53:19.475Z,7.70
2023-04-09T06:54:19.407Z,7.40
2023-04-09T06:55:19.377Z,7.80
2023-04-09T06:56:19.383Z,7.60
2023-04-09T06:57:19.367Z,7.70
2023-04-09T06:58:19.363Z,7.40
2023-04-09T06:59:19.339Z,7.70
2023-04-09T07:00:19.494Z,7.80
2023-04-09T07:01:19.347Z,7.50
2023-04-09T07:02:19.395Z,7.80
2023-04-09T07:03:19.419Z,7.60
2023-04-09T07:04:19.422Z,8.00
2023-04-09T07:05:19.281Z,8.30
2023-04-09T07:06:19.281Z,7.30
2023-04-09T07:07:19.267Z,7.20
2023-04-09T07:08:19.259Z,7.70
2023-04-09T07:09:19.228Z,7.90
2023-04-09T07:10:19.216Z,7.60
2023-04-09T07:11:19.216Z,7.60
2023-04-09T07:12:19.232Z,7.80
2023-04-09T07:13:19.194Z,7.30
2023-04-09T07:14:19.206Z,7.30
2023-04-09T07:15:19.173Z,7.00
2023-04-09T07:16:19.272Z,7.50
2023-04-09T07:17:19.146Z,8.20
2023-04-09T07:18:19.143Z,8.30
2023-04-09T07:19:19.160Z,7.40
2023-04-09T07:20:19.151Z,7.70
2023-04-09T07:21:19.130Z,7.50
2023-04-09T07:22:19.086Z,7.50
2023-04-09T07:23:19.094Z,8.40
2023-04-09T07:24:19.081Z,7.60
2023-04-09T07:25:19.086Z,7.40
2023-04-09T07:26:19.041Z,8.20
2023-04-09T07:27:19.019Z,7.70
2023-04-09T07:28:19.079Z,7.60
2023-04-09T07:29:19.026Z,7.10
2023-04-09T07:30:19.051Z,7.70
2023-04-09T07:31:19.071Z,7.70
2023-04-09T07:32:18.972Z,7.20
2023-04-09T07:33:18.992Z,7.70
2023-04-09T07:34:18.973Z,8.20
2023-04-09T07:35:18.967Z,7.90
2023-04-09T07:36:18.981Z,7.40
2023-04-09T07:37:18.940Z,7.70
2023-04-09T07:38:18.953Z,7.70
2023-04-09T07:39:18.892Z,8.10
2023-04-09T07:40:18.893Z,7.60
2023-04-09T07:41:18.883Z,8.20
2023-04-09T07:42:18.900Z,7.90
2023-04-09T07:43:20.155Z,7.40
2023-04-09T07:44:18.897Z,7.60
2023-04-09T07:45:18.851Z,7.90
2023-04-09T07:46:18.856Z,7.50
2023-04-09T07:47:18.832Z,8.20
2023-04-09T07:48:18.814Z,7.50
2023-04-09T07:49:18.820Z,7.70
2023-04-09T07:50:18.805Z,7.40
2023-04-09T07:51:18.759Z,7.40
2023-04-09T07:52:18.776Z,7.00
2023-04-09T07:53:18.745Z,7.60
2023-04-09T07:54:18.754Z,7.70
2023-04-09T07:55:18.723Z,7.80
2023-04-09T07:56:18.729Z,7.30
2023-04-09T07:57:18.719Z,8.80
2023-04-09T07:58:18.716Z,7.80
2023-04-09T07:59:18.700Z,8.00
2023-04-09T08:00:18.692Z,8.30
2023-04-09T08:01:18.694Z,7.80
2023-04-09T08:02:18.749Z,7.50
2023-04-09T08:03:18.824Z,7.60
2023-04-09T08:04:18.687Z,7.10
2023-04-09T08:05:18.709Z,7.90
2023-04-09T08:06:18.660Z,7.70
2023-04-09T08:07:18.611Z,8.20
2023-04-09T08:08:18.578Z,8.40
2023-04-09T08:09:18.693Z,7.50
2023-04-09T08:10:18.589Z,7.60
2023-04-09T08:11:18.557Z,8.40
2023-04-09T08:12:18.559Z,8.00
2023-04-09T08:13:18.566Z,8.20
2023-04-09T08:14:18.557Z,7.90
2023-04-09T08:15:18.514Z,7.70
2023-04-09T08:16:18.587Z,8.30
2023-04-09T08:17:18.512Z,7.80
2023-04-09T08:18:18.499Z,8.30
2023-04-09T08:19:18.452Z,8.20
2023-04-09T08:20:18.456Z,8.10
2023-04-09T08:21:18.451Z,7.80
2023-04-09T08:22:18.447Z,7.70
2023-04-09T08:23:18.472Z,7.70
2023-04-09T08:24:18.498Z,7.60
2023-04-09T08:25:18.426Z,8.10
2023-04-09T08:26:18.384Z,7.90
2023-04-09T08:27:18.396Z,7.30
2023-04-09T08:28:18.396Z,7.20
2023-04-09T08:29:18.394Z,8.00
2023-04-09T08:30:19.025Z,7.80
2023-04-09T08:31:18.368Z,7.60
2023-04-09T08:32:18.381Z,8.20
2023-04-09T08:33:18.322Z,7.70
2023-04-09T08:34:18.389Z,7.60
2023-04-09T08:35:18.295Z,8.00
2023-04-09T08:36:18.324Z,7.80
2023-04-09T08:37:18.312Z,7.90
2023-04-09T08:38:18.261Z,7.90
2023-04-09T08:39:18.256Z,8.20
2023-04-09T08:40:18.261Z,7.60
2023-04-09T08:41:18.248Z,7.30
2023-04-09T08:42:18.234Z,7.90
2023-04-09T08:43:18.194Z,7.80
2023-04-09T08:44:18.197Z,7.60
2023-04-09T08:45:18.179Z,7.90
2023-04-09T08:46:18.284Z,7.40
2023-04-09T08:47:18.172Z,7.60
2023-04-09T08:48:18.218Z,7.90
2023-04-09T08:49:18.128Z,7.60
2023-04-09T08:50:18.146Z,7.60
2023-04-09T08:51:18.141Z,7.70
2023-04-09T08:52:18.122Z,8.10
2023-04-09T08:53:18.104Z,7.20
2023-04-09T08:54:18.088Z,7.60
2023-04-09T08:55:18.079Z,8.10
2023-04-09T08:56:18.051Z,7.90
2023-04-09T08:57:18.066Z,8.00
2023-04-09T08:58:18.060Z,7.40
2023-04-09T08:59:18.065Z,8.00
2023-04-09T09:00:18.028Z,7.10
2023-04-09T09:01:18.036Z,7.10
2023-04-09T09:02:18.106Z,7.80
2023-04-09T09:03:18.102Z,7.50
2023-04-09T09:04:18.044Z,7.30
2023-04-09T09:05:17.978Z,7.30
2023-04-09T09:06:17.952Z,7.40
2023-04-09T09:07:17.971Z,7.30
2023-04-09T09:08:17.935Z,7.30
2023-04-09T09:09:17.944Z,7.30
2023-04-09T09:10:17.905Z,7.20
2023-04-09T09:11:17.899Z,7.30
2023-04-09T09:12:17.887Z,8.10
2023-04-09T09:13:17.870Z,7.60
2023-04-09T09:14:17.904Z,7.10
2023-04-09T09:15:17.897Z,7.30
2023-04-09T09:16:17.922Z,7.40
2023-04-09T09:17:17.863Z,7.90
2023-04-09T09:18:17.807Z,7.40
2023-04-09T09:19:17.811Z,7.50
2023-04-09T09:20:17.797Z,7.40
2023-04-09T09:21:17.806Z,6.50
2023-04-09T09:22:17.807Z,7.00
2023-04-09T09:23:17.791Z,7.20
2023-04-09T09:24:17.776Z,6.70
2023-04-09T09:25:17.748Z,7.00
2023-04-09T09:26:17.755Z,6.50
2023-04-09T09:27:17.730Z,7.30
2023-04-09T09:28:17.712Z,6.60
2023-04-09T09:29:17.732Z,6.60
2023-04-09T09:30:17.711Z,6.40
2023-04-09T09:31:17.729Z,7.00
2023-04-09T09:32:17.697Z,6.70
2023-04-09T09:33:17.687Z,6.90
2023-04-09T09:34:17.695Z,6.60
2023-04-09T09:35:17.678Z,6.20
2023-04-09T09:36:17.617Z,6.70
2023-04-09T09:37:17.617Z,6.80
2023-04-09T09:38:17.595Z,7.10
2023-04-09T09:39:17.745Z,6.70
2023-04-09T09:40:17.602Z,7.00
2023-04-09T09:41:17.584Z,6.70
2023-04-09T09:42:17.559Z,6.30
2023-04-09T09:43:17.558Z,6.50
2023-04-09T09:44:17.545Z,6.70
2023-04-09T09:45:17.570Z,6.70
2023-04-09T09:46:17.599Z,6.40
2023-04-09T09:47:17.520Z,6.30
2023-04-09T09:48:17.501Z,6.40
2023-04-09T09:49:17.486Z,6.40
2023-04-09T09:50:17.555Z,6.00
2023-04-09T09:51:17.500Z,6.40
2023-04-09T09:52:17.459Z,6.00
2023-04-09T09:53:17.446Z,6.30
2023-04-09T09:54:17.484Z,6.10
2023-04-09T09:55:17.426Z,5.90
2023-04-09T09:56:17.403Z,6.00
2023-04-09T09:57:17.426Z,5.70
2023-04-09T09:58:17.399Z,5.80
2023-04-09T09:59:17.390Z,6.40
2023-04-09T10:00:19.346Z,5.80
2023-04-09T10:01:17.428Z,6.10
2023-04-09T10:02:17.376Z,5.70
2023-04-09T10:03:17.351Z,5.90
2023-04-09T10:04:17.359Z,5.70
2023-04-09T10:05:17.316Z,5.70
2023-04-09T10:06:17.299Z,5.80
2023-04-09T10:07:17.314Z,5.80
2023-04-09T10:08:17.302Z,5.70
2023-04-09T10:09:17.271Z,5.70
2023-04-09T10:10:17.299Z,6.00
2023-04-09T10:11:17.251Z,5.70
2023-04-09T10:13:17.215Z,4.90
2023-04-09T10:14:17.241Z,5.80
2023-04-09T10:15:17.211Z,5.60
2023-04-09T10:16:17.228Z,5.60
2023-04-09T10:17:17.183Z,5.90
2023-04-09T10:18:17.236Z,6.00
2023-04-09T10:19:17.205Z,5.90
2023-04-09T10:20:17.207Z,5.70
2023-04-09T10:21:17.170Z,6.40
2023-04-09T10:22:17.283Z,6.40
2023-04-09T10:23:17.145Z,6.10
2023-04-09T10:24:17.150Z,6.30
2023-04-09T10:25:17.110Z,6.00
2023-04-09T10:26:17.091Z,5.60
2023-04-09T10:27:17.513Z,6.10
2023-04-09T10:28:17.085Z,6.50
2023-04-09T10:29:17.151Z,5.40
2023-04-09T10:30:17.035Z,5.80
2023-04-09T10:31:17.058Z,6.00
2023-04-09T10:32:17.018Z,6.00
2023-04-09T10:33:17.039Z,6.30
2023-04-09T10:34:17.016Z,6.40
2023-04-09T10:35:16.989Z,5.90
2023-04-09T10:36:16.990Z,6.20
2023-04-09T10:37:16.969Z,6.00
2023-04-09T10:38:16.969Z,6.00
2023-04-09T10:39:16.979Z,5.70
2023-04-09T10:40:16.938Z,6.10
2023-04-09T10:41:16.910Z,6.10
2023-04-09T10:42:16.891Z,6.10
2023-04-09T10:43:16.912Z,6.00
2023-04-09T10:44:16.904Z,5.60
2023-04-09T10:45:16.933Z,5.70
2023-04-09T10:46:16.957Z,6.00
2023-04-09T10:47:16.896Z,6.10
2023-04-09T10:48:16.858Z,5.80
2023-04-09T10:49:16.869Z,5.90
2023-04-09T10:50:16.829Z,5.30
2023-04-09T10:51:16.818Z,5.90
2023-04-09T10:52:16.859Z,6.30
2023-04-09T10:53:16.802Z,6.50
2023-04-09T10:54:16.773Z,6.20
2023-04-09T10:55:16.764Z,6.50
2023-04-09T10:56:16.771Z,5.70
2023-04-09T10:57:16.801Z,6.10
2023-04-09T10:58:16.715Z,6.20
2023-04-09T10:59:16.712Z,6.50
2023-04-09T11:00:16.720Z,6.20
2023-04-09T11:01:16.701Z,6.00
2023-04-09T11:02:16.761Z,6.00
2023-04-09T11:03:16.821Z,6.20
2023-04-09T11:04:16.801Z,6.00
2023-04-09T11:05:16.709Z,5.50
2023-04-09T11:06:16.655Z,5.50
2023-04-09T11:07:16.704Z,5.50
2023-04-09T11:08:16.657Z,5.80
2023-04-09T11:09:16.630Z,5.80
2023-04-09T11:10:16.641Z,6.00
2023-04-09T11:11:16.655Z,5.60
2023-04-09T11:12:16.593Z,5.50
2023-04-09T11:13:16.611Z,5.60
2023-04-09T11:14:16.572Z,5.70
2023-04-09T11:15:16.640Z,5.30
2023-04-09T11:16:24.706Z,5.00
2023-04-09T11:17:16.558Z,5.60
2023-04-09T11:18:16.535Z,5.20
2023-04-09T11:19:16.517Z,5.20
2023-04-09T11:20:16.593Z,5.20
2023-04-09T11:21:16.509Z,4.70
2023-04-09T11:22:16.456Z,4.20
2023-04-09T11:23:16.515Z,4.50
2023-04-09T11:24:16.512Z,4.50
2023-04-09T11:25:16.461Z,4.30
2023-04-09T11:26:16.449Z,4.20
2023-04-09T11:27:16.442Z,4.00
2023-04-09T11:28:16.406Z,4.40
2023-04-09T11:29:16.398Z,4.40
2023-04-09T11:30:16.370Z,4.20
2023-04-09T11:31:16.446Z,4.30
2023-04-09T11:32:16.376Z,4.30
2023-04-09T11:33:19.128Z,3.80
2023-04-09T11:34:16.416Z,4.20
2023-04-09T11:35:16.359Z,3.90
2023-04-09T11:36:16.442Z,4.50
2023-04-09T11:37:16.318Z,5.00
2023-04-09T11:38:16.338Z,4.90
2023-04-09T11:39:16.287Z,4.20
2023-04-09T11:40:16.325Z,4.90
2023-04-09T11:41:16.515Z,4.90
2023-04-09T11:42:16.253Z,4.90
2023-04-09T11:43:16.266Z,5.00
2023-04-09T11:44:16.259Z,4.80
2023-04-09T11:45:16.264Z,4.80
2023-04-09T11:46:16.251Z,4.60
2023-04-09T11:47:16.279Z,5.00
2023-04-09T11:48:16.209Z,5.30
2023-04-09T11:49:16.191Z,4.90
2023-04-09T11:50:16.162Z,5.10
2023-04-09T11:51:16.252Z,4.80
2023-04-09T11:52:16.176Z,5.20
2023-04-09T11:53:16.134Z,5.50
2023-04-09T11:54:16.127Z,5.50
2023-04-09T11:55:16.096Z,5.10
2023-04-09T11:56:16.150Z,5.30
2023-04-09T11:57:16.100Z,5.60
2023-04-09T11:58:16.085Z,5.20
2023-04-09T11:59:16.072Z,5.30
2023-04-09T12:00:16.103Z,5.30
2023-04-09T12:01:16.089Z,5.50
2023-04-09T12:02:16.145Z,5.50
2023-04-09T12:03:16.892Z,5.20
2023-04-09T12:04:16.261Z,5.50
2023-04-09T12:05:16.061Z,5.40
2023-04-09T12:06:15.996Z,5.50
2023-04-09T12:07:16.002Z,5.30
2023-04-09T12:08:16.056Z,5.30
2023-04-09T12:09:16.014Z,5.10
2023-04-09T12:10:15.972Z,5.00
2023-04-09T12:11:15.970Z,5.00
2023-04-09T12:12:16.107Z,5.10
2023-04-09T12:13:15.927Z,4.70
2023-04-09T12:14:15.927Z,4.80
2023-04-09T12:15:15.926Z,5.00
2023-04-09T12:16:15.901Z,4.60
2023-04-09T12:17:15.859Z,4.40
2023-04-09T12:18:15.851Z,4.90
2023-04-09T12:19:15.866Z,5.10
2023-04-09T12:20:15.851Z,4.50
2023-04-09T12:21:18.073Z,4.80
2023-04-09T12:22:15.875Z,4.90
2023-04-09T12:23:15.814Z,4.70
2023-04-09T12:24:15.786Z,4.50
2023-04-09T12:25:15.782Z,4.30
2023-04-09T12:26:15.832Z,4.60
2023-04-09T12:27:15.788Z,4.70
2023-04-09T12:28:15.927Z,4.50
2023-04-09T12:29:15.771Z,4.70
2023-04-09T12:30:15.736Z,4.20
2023-04-09T12:31:15.750Z,4.90
2023-04-09T12:32:15.794Z,5.20
2023-04-09T12:33:15.724Z,4.50
2023-04-09T12:34:15.677Z,4.50
2023-04-09T12:35:15.672Z,4.60
2023-04-09T12:36:15.720Z,4.50
2023-04-09T12:37:15.653Z,4.50
2023-04-09T12:38:15.634Z,4.80
2023-04-09T12:39:15.651Z,4.50
2023-04-09T12:40:15.643Z,4.50
2023-04-09T12:41:15.609Z,4.90
2023-04-09T12:42:15.622Z,4.60
2023-04-09T12:43:15.630Z,4.40
2023-04-09T12:44:15.582Z,4.90
2023-04-09T12:45:15.584Z,4.60
2023-04-09T12:46:15.558Z,4.60
2023-04-09T12:47:15.554Z,4.40
2023-04-09T12:48:15.547Z,4.60
2023-04-09T12:49:15.527Z,4.40
2023-04-09T12:50:15.509Z,4.30
2023-04-09T12:51:15.568Z,4.50
2023-04-09T12:52:15.499Z,4.10
2023-04-09T12:53:15.475Z,4.30
2023-04-09T12:54:15.458Z,4.20
2023-04-09T12:55:15.458Z,4.40
2023-04-09T12:56:15.448Z,4.50
2023-04-09T12:57:15.489Z,4.40
2023-04-09T12:58:15.430Z,4.00
2023-04-09T12:59:15.408Z,4.20
2023-04-09T13:00:15.390Z,4.60
2023-04-09T13:01:15.423Z,3.90
2023-04-09T13:02:15.495Z,4.40
2023-04-09T13:03:15.486Z,3.80
2023-04-09T13:04:15.457Z,3.60
2023-04-09T13:05:15.370Z,4.20
2023-04-09T13:06:15.326Z,3.80
2023-04-09T13:07:15.357Z,4.00
2023-04-09T13:08:15.368Z,3.50
2023-04-09T13:09:15.344Z,4.30
2023-04-09T13:10:15.330Z,3.50
2023-04-09T13:11:15.309Z,3.80
2023-04-09T13:12:15.306Z,3.70
2023-04-09T13:13:15.303Z,3.50
2023-04-09T13:14:15.294Z,3.60
2023-04-09T13:15:15.266Z,3.00
2023-04-09T13:16:15.232Z,3.20
2023-04-09T13:17:15.270Z,3.60
2023-04-09T13:18:15.224Z,3.50
2023-04-09T13:19:15.210Z,3.60